Terminal Aerodrome Forecast
Issued by NWS Mobile, AL

Home | Current Version | Previous Version | Text Only | Print | Product List | Glossary On
Versions: 1 2 3 4 5 6 7 8 9 10 11 12
000
FTUS44 KMOB 180529
TAFPNS
TAF
KPNS 180529Z 1806/1906 16005KT P6SM BKN350
     FM181000 17005KT 6SM BR BKN030 BKN350
     FM181500 20015KT P6SM OVC035
     FM190300 22014KT P6SM VCSH OVC030=

USA.gov is the U.S. government's official web portal to all federal, state and local government web resources and services.